Alder, Montana
Current Conditions -  °F | °C
As of 4:53 AM on Monday 22 Dec 2014 (Local Time) from KDLN Reporting Station
Few Clouds Few Clouds  
Wind Chill: -5°   Ceiling: Unl
Heat Index:   Visibility: 10mi
Dew Point: -5°   Wind: 15mph
Humidity: 66%   Direction: 270°W
Pressure: 29.87"   Gusts: NA
Location:  45.32°N, 112.11°W
Report Text: KDLN 221153Z AUTO 27013KT 10SM FEW080 01/M05 A2987 RMK AO2 SLP125 70001 T00061050 10017 21006 53009
Loading
Personal Weather Stations






























Interactive Weather Map New forecast layout! Learn more

10-Day Weather Forecast

Advertisements
Track Severe Weather on mobile